createdAt,value
2017-04-13T00:00:23.440Z,68.70
2017-04-13T00:01:21.342Z,68.70
2017-04-13T00:02:19.235Z,68.80
2017-04-13T00:03:17.103Z,68.80
2017-04-13T00:04:14.979Z,68.90
2017-04-13T00:05:12.863Z,68.90
2017-04-13T00:06:10.729Z,68.90
2017-04-13T00:07:08.617Z,68.90
2017-04-13T00:08:06.534Z,69.10
2017-04-13T00:09:04.763Z,69.30
2017-04-13T00:10:02.672Z,69.30
2017-04-13T00:11:00.575Z,69.30
2017-04-13T00:11:58.458Z,69.20
2017-04-13T00:12:56.305Z,68.80
2017-04-13T00:13:54.255Z,68.60
2017-04-13T00:14:52.132Z,68.50
2017-04-13T00:15:50.002Z,68.20
2017-04-13T00:16:47.874Z,68.10
2017-04-13T00:17:45.750Z,68.00
2017-04-13T00:18:43.635Z,68.00
2017-04-13T00:19:41.538Z,67.90
2017-04-13T00:20:39.410Z,67.80
2017-04-13T00:21:37.320Z,67.90
2017-04-13T00:22:35.189Z,67.90
2017-04-13T00:23:33.432Z,68.00
2017-04-13T00:24:31.296Z,67.90
2017-04-13T00:25:29.243Z,67.80
2017-04-13T00:26:27.139Z,67.80
2017-04-13T00:27:24.997Z,68.00
2017-04-13T00:28:22.471Z,68.00
2017-04-13T00:29:20.326Z,67.90
2017-04-13T00:30:18.357Z,67.90
2017-04-13T00:31:16.618Z,67.90
2017-04-13T00:32:14.483Z,67.80
2017-04-13T00:33:12.321Z,67.90
2017-04-13T00:34:10.190Z,68.10
2017-04-13T00:35:08.096Z,68.20
2017-04-13T00:36:05.992Z,68.20
2017-04-13T00:37:03.878Z,68.00
2017-04-13T00:38:01.753Z,68.10
2017-04-13T00:38:59.607Z,68.30
2017-04-13T00:39:57.455Z,68.60
2017-04-13T00:40:55.306Z,68.70
2017-04-13T00:41:53.162Z,68.80
2017-04-13T00:42:51.095Z,68.70
2017-04-13T00:43:48.964Z,68.80
2017-04-13T00:44:47.179Z,68.90
2017-04-13T00:45:45.470Z,68.80
2017-04-13T00:46:43.349Z,68.70
2017-04-13T00:47:41.222Z,68.50
2017-04-13T00:48:39.115Z,68.20
2017-04-13T00:49:36.966Z,68.10
2017-04-13T00:50:34.823Z,67.70
2017-04-13T00:51:32.662Z,67.50
2017-04-13T00:52:30.586Z,67.40
2017-04-13T00:53:28.454Z,67.40
2017-04-13T00:54:26.355Z,67.40
2017-04-13T00:55:24.283Z,67.40
2017-04-13T00:56:22.154Z,67.50
2017-04-13T00:57:20.010Z,67.30
2017-04-13T00:58:17.875Z,67.20
2017-04-13T00:59:15.729Z,67.00
2017-04-13T01:00:13.711Z,66.80
2017-04-13T01:01:11.618Z,66.70
2017-04-13T01:02:09.513Z,66.30
2017-04-13T01:03:07.401Z,66.40
2017-04-13T01:04:05.279Z,66.60
2017-04-13T01:05:02.742Z,66.60
2017-04-13T01:06:00.669Z,67.10
2017-04-13T01:06:58.606Z,67.20
2017-04-13T01:07:56.475Z,67.30
2017-04-13T01:08:54.378Z,67.30
2017-04-13T01:09:52.238Z,67.30
2017-04-13T01:10:50.114Z,67.70
2017-04-13T01:11:48.006Z,68.00
2017-04-13T01:12:45.913Z,67.90
2017-04-13T01:13:43.862Z,67.70
2017-04-13T01:14:41.735Z,67.90
2017-04-13T01:15:39.623Z,68.30
2017-04-13T01:16:37.466Z,68.40
2017-04-13T01:17:35.370Z,68.40
2017-04-13T01:18:33.250Z,68.50
2017-04-13T01:19:31.138Z,68.60
2017-04-13T01:20:29.105Z,68.50
2017-04-13T01:21:26.951Z,68.40
2017-04-13T01:22:24.850Z,68.60
2017-04-13T01:23:22.779Z,68.80
2017-04-13T01:24:20.672Z,68.80
2017-04-13T01:25:18.906Z,68.80
2017-04-13T01:26:16.817Z,68.60
2017-04-13T01:27:14.704Z,68.60
2017-04-13T01:28:12.564Z,68.50
2017-04-13T01:29:10.502Z,68.50
2017-04-13T01:30:08.425Z,68.40
2017-04-13T01:31:06.298Z,68.40
2017-04-13T01:32:04.153Z,68.40
2017-04-13T01:33:02.054Z,68.40
2017-04-13T01:33:59.933Z,68.30
2017-04-13T01:34:57.913Z,68.10
2017-04-13T01:35:55.783Z,67.80
2017-04-13T01:36:54.039Z,67.50
2017-04-13T01:37:51.916Z,67.30
2017-04-13T01:38:49.778Z,67.20
2017-04-13T01:39:47.634Z,67.10
2017-04-13T01:40:45.537Z,67.20
2017-04-13T01:41:43.398Z,67.30
2017-04-13T01:42:41.301Z,67.40
2017-04-13T01:43:39.162Z,67.60
2017-04-13T01:44:37.026Z,67.70
2017-04-13T01:45:35.166Z,67.80
2017-04-13T01:46:32.658Z,67.80
2017-04-13T01:47:30.536Z,67.70
2017-04-13T01:48:28.406Z,67.70
2017-04-13T01:49:26.334Z,67.90
2017-04-13T01:50:24.195Z,68.00
2017-04-13T01:51:22.057Z,68.10
2017-04-13T01:52:20.039Z,68.20
2017-04-13T01:53:17.882Z,68.30
2017-04-13T01:54:15.756Z,68.40
2017-04-13T01:55:13.627Z,68.30
2017-04-13T01:56:11.482Z,68.40
2017-04-13T01:57:09.386Z,68.50
2017-04-13T01:58:07.270Z,68.50
2017-04-13T01:59:05.149Z,68.60
2017-04-13T02:00:03.125Z,68.70
2017-04-13T02:01:01.011Z,68.60
2017-04-13T02:01:58.893Z,68.70
2017-04-13T02:02:56.776Z,68.80
2017-04-13T02:03:54.698Z,68.80
2017-04-13T02:04:52.609Z,68.80
2017-04-13T02:05:50.592Z,68.80
2017-04-13T02:06:48.469Z,68.90
2017-04-13T02:07:46.354Z,68.90
2017-04-13T02:08:44.262Z,68.80
2017-04-13T02:09:42.441Z,68.80
2017-04-13T02:10:40.299Z,68.80
2017-04-13T02:11:38.138Z,68.80
2017-04-13T02:12:36.018Z,68.60
2017-04-13T02:13:33.863Z,68.60
2017-04-13T02:14:31.735Z,68.50
2017-04-13T02:15:29.639Z,68.50
2017-04-13T02:16:27.587Z,68.60
2017-04-13T02:17:25.597Z,68.60
2017-04-13T02:18:23.459Z,68.50
2017-04-13T02:19:21.383Z,68.70
2017-04-13T02:20:19.293Z,68.80
2017-04-13T02:21:17.186Z,68.70
2017-04-13T02:22:15.077Z,68.60
2017-04-13T02:23:13.050Z,68.60
2017-04-13T02:24:10.898Z,68.80
2017-04-13T02:25:08.754Z,69.00
2017-04-13T02:26:06.615Z,69.10
2017-04-13T02:27:04.233Z,69.10
2017-04-13T02:28:02.721Z,69.00
2017-04-13T02:29:00.586Z,69.00
2017-04-13T02:29:58.435Z,69.00
2017-04-13T02:30:56.296Z,68.90
2017-04-13T02:31:54.288Z,68.80
2017-04-13T02:32:52.194Z,68.60
2017-04-13T02:33:50.135Z,68.50
2017-04-13T02:34:48.070Z,68.40
2017-04-13T02:35:45.920Z,68.30
2017-04-13T02:36:43.769Z,68.30
2017-04-13T02:37:41.223Z,68.30
2017-04-13T02:38:39.122Z,68.30
2017-04-13T02:39:37.718Z,68.30
2017-04-13T02:40:35.655Z,68.40
2017-04-13T02:41:33.514Z,68.50
2017-04-13T02:42:31.918Z,68.40
2017-04-13T02:43:29.903Z,68.40
2017-04-13T02:44:27.915Z,68.40
2017-04-13T02:45:25.804Z,68.30
2017-04-13T02:46:23.694Z,68.40
2017-04-13T02:47:21.564Z,68.50
2017-04-13T02:48:19.415Z,68.60
2017-04-13T02:49:17.279Z,68.70
2017-04-13T02:50:15.217Z,68.90
2017-04-13T02:51:13.075Z,69.10
2017-04-13T02:52:11.075Z,69.30
2017-04-13T02:53:08.946Z,69.40
2017-04-13T02:54:06.836Z,69.40
2017-04-13T02:55:04.702Z,69.40
2017-04-13T02:56:02.619Z,69.40
2017-04-13T02:57:00.496Z,69.50
2017-04-13T02:57:58.353Z,69.50
2017-04-13T02:58:56.234Z,69.60
2017-04-13T02:59:54.330Z,69.70
2017-04-13T03:00:52.402Z,69.70
2017-04-13T03:01:50.726Z,69.70
2017-04-13T03:02:48.565Z,69.80
2017-04-13T03:03:46.442Z,69.70
2017-04-13T03:04:44.317Z,69.70
2017-04-13T03:05:42.402Z,69.80
2017-04-13T03:06:40.276Z,69.90
2017-04-13T03:07:38.147Z,69.90
2017-04-13T03:08:35.994Z,70.00
2017-04-13T03:09:33.842Z,70.00
2017-04-13T03:10:31.702Z,70.00
2017-04-13T03:11:29.612Z,70.00
2017-04-13T03:12:27.475Z,69.90
2017-04-13T03:13:25.374Z,69.90
2017-04-13T03:14:23.216Z,70.20
2017-04-13T03:15:21.087Z,70.50
2017-04-13T03:16:18.926Z,70.60
2017-04-13T03:17:16.783Z,70.60
2017-04-13T03:18:14.639Z,70.60
2017-04-13T03:19:12.700Z,70.60
2017-04-13T03:20:10.601Z,70.50
2017-04-13T03:21:08.532Z,70.50
2017-04-13T03:22:06.412Z,70.60
2017-04-13T03:23:04.284Z,70.70
2017-04-13T03:24:01.754Z,70.70
2017-04-13T03:24:59.647Z,70.70
2017-04-13T03:25:57.498Z,70.70
2017-04-13T03:26:55.342Z,70.70
2017-04-13T03:27:53.203Z,70.70
2017-04-13T03:28:51.082Z,70.70
2017-04-13T03:29:48.934Z,70.60
2017-04-13T03:30:46.541Z,70.60
2017-04-13T03:31:44.444Z,70.80
2017-04-13T03:32:42.321Z,70.80
2017-04-13T03:33:40.182Z,70.90
2017-04-13T03:34:38.023Z,70.90
2017-04-13T03:35:35.870Z,70.90
2017-04-13T03:36:33.778Z,70.80
2017-04-13T03:37:31.339Z,70.80
2017-04-13T03:38:29.200Z,70.80
2017-04-13T03:39:27.047Z,70.70
2017-04-13T03:40:24.902Z,70.60
2017-04-13T03:41:22.749Z,70.40
2017-04-13T03:42:20.681Z,70.40
2017-04-13T03:43:18.523Z,70.40
2017-04-13T03:44:16.434Z,70.30
2017-04-13T03:45:14.324Z,70.30
2017-04-13T03:46:12.341Z,70.20
2017-04-13T03:47:10.263Z,70.20
2017-04-13T03:48:08.243Z,70.20
2017-04-13T03:49:06.112Z,70.20
2017-04-13T03:50:03.587Z,70.20
2017-04-13T03:51:01.434Z,70.30
2017-04-13T03:51:59.298Z,70.60
2017-04-13T03:52:57.250Z,70.60
2017-04-13T03:53:55.151Z,70.60
2017-04-13T03:54:53.013Z,70.60
2017-04-13T03:55:50.902Z,70.40
2017-04-13T03:56:48.778Z,70.30
2017-04-13T03:57:46.665Z,70.30
2017-04-13T03:58:44.805Z,70.20
2017-04-13T03:59:42.374Z,70.20
2017-04-13T04:00:40.293Z,70.50
2017-04-13T04:01:38.162Z,70.60
2017-04-13T04:02:36.025Z,70.40
2017-04-13T04:03:33.892Z,70.30
2017-04-13T04:04:31.783Z,70.30
2017-04-13T04:05:29.723Z,70.20
2017-04-13T04:06:27.580Z,70.20
2017-04-13T04:07:25.633Z,70.20
2017-04-13T04:08:23.620Z,70.30
2017-04-13T04:09:21.475Z,70.40
2017-04-13T04:10:19.486Z,70.30
2017-04-13T04:11:17.414Z,70.30
2017-04-13T04:12:15.276Z,70.30
2017-04-13T04:13:13.147Z,70.30
2017-04-13T04:14:11.021Z,70.30
2017-04-13T04:15:08.881Z,70.30
2017-04-13T04:16:06.737Z,70.40
2017-04-13T04:17:04.631Z,70.60
2017-04-13T04:18:02.521Z,70.70
2017-04-13T04:19:00.002Z,70.70
2017-04-13T04:19:57.838Z,70.80
2017-04-13T04:20:55.290Z,70.80
2017-04-13T04:21:53.199Z,70.80
2017-04-13T04:22:51.139Z,70.60
2017-04-13T04:23:48.994Z,70.70
2017-04-13T04:24:46.866Z,70.90
2017-04-13T04:25:44.726Z,71.00
2017-04-13T04:26:42.582Z,71.20
2017-04-13T04:27:40.437Z,71.30
2017-04-13T04:28:38.411Z,71.40
2017-04-13T04:29:36.382Z,71.40
2017-04-13T04:30:34.296Z,71.50
2017-04-13T04:31:32.177Z,71.60
2017-04-13T04:32:30.038Z,71.50
2017-04-13T04:33:27.982Z,71.70
2017-04-13T04:34:26.422Z,71.70
2017-04-13T04:35:24.281Z,71.90
2017-04-13T04:36:22.198Z,72.40
2017-04-13T04:37:20.679Z,73.20
2017-04-13T04:38:18.948Z,73.80
2017-04-13T04:39:16.788Z,74.00
2017-04-13T04:40:14.661Z,74.40
2017-04-13T04:41:12.494Z,75.00
2017-04-13T04:42:10.330Z,75.30
2017-04-13T04:43:08.167Z,75.80
2017-04-13T04:44:06.741Z,75.70
2017-04-13T04:45:04.576Z,76.20
2017-04-13T04:46:02.461Z,76.40
2017-04-13T04:47:00.306Z,76.50
2017-04-13T04:47:58.161Z,75.90
2017-04-13T04:48:56.018Z,76.30
2017-04-13T04:49:53.923Z,76.20
2017-04-13T04:50:51.843Z,76.10
2017-04-13T04:51:49.739Z,76.30
2017-04-13T04:52:47.582Z,76.10
2017-04-13T04:53:45.507Z,76.20
2017-04-13T04:54:43.382Z,76.40
2017-04-13T04:55:40.853Z,76.40
2017-04-13T04:56:39.145Z,76.40
2017-04-13T04:57:37.438Z,76.50
2017-04-13T04:58:35.279Z,76.60
2017-04-13T04:59:33.158Z,77.00
2017-04-13T05:00:31.066Z,76.90
2017-04-13T05:01:29.147Z,77.10
2017-04-13T05:02:27.018Z,76.90
2017-04-13T05:03:24.948Z,76.90
2017-04-13T05:04:22.907Z,76.60
2017-04-13T05:05:20.781Z,76.90
2017-04-13T05:06:19.045Z,76.70
2017-04-13T05:07:16.941Z,77.10
2017-04-13T05:08:14.840Z,77.10
2017-04-13T05:09:12.757Z,77.00
2017-04-13T05:10:10.655Z,76.80
2017-04-13T05:11:08.607Z,76.90
2017-04-13T05:12:06.505Z,77.10
2017-04-13T05:13:04.399Z,76.90
2017-04-13T05:14:02.286Z,76.80
2017-04-13T05:15:00.256Z,76.80
2017-04-13T05:15:58.130Z,77.00
2017-04-13T05:16:56.059Z,77.00
2017-04-13T05:17:53.993Z,77.20
2017-04-13T05:18:51.890Z,77.20
2017-04-13T05:19:49.792Z,77.30
2017-04-13T05:20:47.349Z,77.20
2017-04-13T05:21:45.663Z,77.50
2017-04-13T05:22:43.707Z,77.40
2017-04-13T05:23:41.596Z,77.20
2017-04-13T05:24:39.507Z,77.20
2017-04-13T05:25:37.444Z,77.20
2017-04-13T05:26:35.345Z,77.00
2017-04-13T05:27:33.257Z,76.90
2017-04-13T05:28:31.254Z,76.90
2017-04-13T05:29:28.732Z,76.90
2017-04-13T05:30:27.055Z,76.70
2017-04-13T05:31:24.978Z,76.70
2017-04-13T05:32:23.126Z,76.70
2017-04-13T05:33:21.005Z,76.20
2017-04-13T05:34:19.506Z,76.40
2017-04-13T05:35:17.392Z,76.40
2017-04-13T05:36:15.303Z,76.20
2017-04-13T05:37:13.248Z,76.00
2017-04-13T05:38:11.179Z,76.00
2017-04-13T05:39:09.495Z,75.60
2017-04-13T05:40:07.423Z,76.00
2017-04-13T05:41:05.361Z,76.10
2017-04-13T05:42:02.924Z,76.10
2017-04-13T05:43:00.789Z,75.90
2017-04-13T05:43:58.733Z,76.10
2017-04-13T05:44:56.641Z,75.90
2017-04-13T05:45:54.636Z,76.00
2017-04-13T05:46:52.527Z,75.90
2017-04-13T05:47:50.422Z,76.00
2017-04-13T05:48:48.328Z,75.90
2017-04-13T05:49:46.246Z,75.90
2017-04-13T05:50:44.129Z,75.90
2017-04-13T05:51:42.028Z,75.80
2017-04-13T05:52:39.915Z,75.90
2017-04-13T05:53:37.384Z,75.90
2017-04-13T05:54:35.262Z,75.80
2017-04-13T05:55:33.134Z,75.80
2017-04-13T05:56:31.014Z,75.60
2017-04-13T05:57:29.119Z,75.30
2017-04-13T05:58:27.004Z,75.30
2017-04-13T05:59:24.880Z,75.70
2017-04-13T06:00:22.769Z,75.60
2017-04-13T06:01:20.670Z,75.30
2017-04-13T06:02:19.054Z,75.40
2017-04-13T06:03:17.588Z,75.60
2017-04-13T06:04:15.494Z,75.60
2017-04-13T06:05:13.397Z,75.60
2017-04-13T06:06:11.282Z,75.50
2017-04-13T06:07:09.165Z,75.40
2017-04-13T06:08:07.103Z,75.60
2017-04-13T06:09:05.116Z,75.50
2017-04-13T06:10:02.976Z,75.40
2017-04-13T06:11:00.898Z,75.20
2017-04-13T06:12:00.010Z,74.90
2017-04-13T06:12:59.633Z,75.00
2017-04-13T06:13:58.998Z,74.80
2017-04-13T06:14:58.063Z,74.60
2017-04-13T06:15:57.429Z,74.30
2017-04-13T06:16:54.941Z,74.30
2017-04-13T06:17:52.860Z,73.90
2017-04-13T06:18:50.747Z,73.70
2017-04-13T06:19:48.602Z,74.00
2017-04-13T06:20:47.369Z,74.00
2017-04-13T06:21:45.340Z,73.90
2017-04-13T06:22:43.243Z,73.90
2017-04-13T06:23:41.163Z,74.00
2017-04-13T06:24:39.068Z,74.10
2017-04-13T06:25:36.995Z,74.20
2017-04-13T06:26:34.930Z,74.10
2017-04-13T06:27:32.817Z,74.00
2017-04-13T06:28:30.708Z,74.20
2017-04-13T06:29:28.967Z,74.20
2017-04-13T06:30:26.824Z,74.20
2017-04-13T06:31:25.106Z,74.20
2017-04-13T06:32:23.285Z,74.00
2017-04-13T06:33:21.191Z,74.10
2017-04-13T06:34:19.089Z,74.10
2017-04-13T06:35:16.938Z,74.10
2017-04-13T06:36:14.873Z,74.10
2017-04-13T06:37:12.771Z,74.10
2017-04-13T06:38:10.670Z,73.70
2017-04-13T06:39:08.535Z,73.60
2017-04-13T06:40:06.426Z,73.60
2017-04-13T06:41:04.305Z,73.40
2017-04-13T06:42:02.620Z,73.10
2017-04-13T06:43:00.492Z,73.00
2017-04-13T06:43:58.483Z,73.00
2017-04-13T06:44:56.356Z,72.80
2017-04-13T06:45:54.215Z,73.10
2017-04-13T06:46:52.102Z,73.00
2017-04-13T06:47:49.985Z,73.90
2017-04-13T06:48:47.866Z,74.20
2017-04-13T06:49:45.806Z,74.00
2017-04-13T06:50:43.798Z,74.20
2017-04-13T06:51:41.680Z,74.00
2017-04-13T06:52:39.553Z,74.10
2017-04-13T06:53:37.449Z,74.00
2017-04-13T06:54:35.677Z,73.50
2017-04-13T06:55:33.638Z,74.20
2017-04-13T06:56:31.514Z,74.20
2017-04-13T06:57:37.382Z,74.20
2017-04-13T06:58:35.238Z,73.90
2017-04-13T06:59:33.083Z,73.70
2017-04-13T07:00:30.951Z,73.80
2017-04-13T07:01:29.177Z,73.30
2017-04-13T07:02:27.082Z,73.80
2017-04-13T07:03:25.177Z,73.70
2017-04-13T07:04:23.066Z,73.80
2017-04-13T07:05:20.934Z,73.70
2017-04-13T07:06:18.799Z,73.60
2017-04-13T07:07:16.701Z,73.30
2017-04-13T07:08:14.556Z,73.60
2017-04-13T07:09:12.446Z,73.60
2017-04-13T07:10:10.301Z,73.50
2017-04-13T07:11:08.274Z,74.00
2017-04-13T07:12:06.146Z,74.20
2017-04-13T07:13:04.107Z,74.40
2017-04-13T07:14:02.026Z,74.10
2017-04-13T07:14:59.920Z,73.90
2017-04-13T07:15:57.786Z,74.10
2017-04-13T07:16:55.638Z,74.10
2017-04-13T07:17:53.888Z,74.20
2017-04-13T07:18:52.911Z,74.20
2017-04-13T07:19:50.770Z,74.30
2017-04-13T07:20:48.996Z,74.20
2017-04-13T07:21:46.849Z,74.00
2017-04-13T07:22:44.711Z,74.00
2017-04-13T07:23:42.188Z,74.00
2017-04-13T07:24:40.062Z,74.10
2017-04-13T07:25:37.909Z,73.80
2017-04-13T07:26:35.754Z,73.70
2017-04-13T07:27:33.614Z,73.30
2017-04-13T07:28:31.549Z,72.80
2017-04-13T07:29:29.410Z,72.40
2017-04-13T07:30:27.291Z,72.30
2017-04-13T07:31:25.156Z,72.40
2017-04-13T07:32:23.073Z,72.00
2017-04-13T07:33:20.919Z,71.70
2017-04-13T07:34:18.776Z,71.10
2017-04-13T07:35:16.657Z,70.50
2017-04-13T07:36:14.586Z,70.60
2017-04-13T07:37:12.494Z,70.70
2017-04-13T07:38:10.718Z,70.90
2017-04-13T07:39:08.577Z,71.00
2017-04-13T07:40:07.183Z,71.10
2017-04-13T07:41:05.078Z,70.80
2017-04-13T07:42:03.058Z,70.40
2017-04-13T07:43:00.902Z,70.00
2017-04-13T07:43:58.766Z,69.70
2017-04-13T07:44:56.646Z,69.90
2017-04-13T07:45:54.506Z,69.80
2017-04-13T07:46:52.369Z,70.40
2017-04-13T07:47:50.250Z,70.60
2017-04-13T07:48:48.108Z,70.40
2017-04-13T07:49:45.951Z,70.50
2017-04-13T07:50:43.791Z,70.40
2017-04-13T07:51:41.667Z,70.20
2017-04-13T07:52:39.546Z,69.70
2017-04-13T07:53:37.450Z,69.30
2017-04-13T07:54:35.329Z,69.60
2017-04-13T07:55:33.562Z,69.80
2017-04-13T07:56:31.419Z,69.70
2017-04-13T07:57:29.457Z,69.40
2017-04-13T07:58:27.337Z,69.80
2017-04-13T07:59:25.235Z,69.90
2017-04-13T08:00:23.091Z,70.10
2017-04-13T08:01:20.950Z,70.20
2017-04-13T08:02:19.099Z,69.80
2017-04-13T08:03:17.200Z,69.60
2017-04-13T08:04:15.102Z,69.50
2017-04-13T08:05:13.370Z,69.20
2017-04-13T08:06:11.255Z,69.00
2017-04-13T08:07:09.130Z,69.00
2017-04-13T08:08:07.003Z,68.90
2017-04-13T08:09:05.031Z,68.90
2017-04-13T08:10:02.898Z,68.90
2017-04-13T08:11:00.993Z,68.70
2017-04-13T08:11:58.911Z,68.90
2017-04-13T08:12:56.387Z,68.90
2017-04-13T08:13:54.222Z,68.10
2017-04-13T08:14:52.080Z,67.90
2017-04-13T08:15:50.259Z,67.60
2017-04-13T08:16:48.155Z,67.70
2017-04-13T08:17:46.276Z,68.20
2017-04-13T08:18:44.210Z,68.70
2017-04-13T08:19:42.089Z,69.00
2017-04-13T08:20:39.959Z,69.00
2017-04-13T08:21:38.112Z,69.30
2017-04-13T08:22:36.039Z,69.40
2017-04-13T08:23:34.260Z,69.40
2017-04-13T08:24:32.127Z,69.50
2017-04-13T08:25:29.988Z,69.40
2017-04-13T08:26:27.838Z,69.10
2017-04-13T08:27:25.701Z,68.80
2017-04-13T08:28:23.607Z,68.30
2017-04-13T08:29:21.466Z,68.40
2017-04-13T08:30:19.332Z,68.10
2017-04-13T08:31:17.211Z,68.30
2017-04-13T08:32:15.066Z,68.40
2017-04-13T08:33:12.952Z,68.50
2017-04-13T08:34:10.838Z,68.30
2017-04-13T08:35:08.691Z,67.60
2017-04-13T08:36:06.585Z,67.70
2017-04-13T08:37:04.438Z,68.10
2017-04-13T08:38:02.299Z,68.40
2017-04-13T08:39:00.170Z,68.60
2017-04-13T08:39:58.075Z,68.40
2017-04-13T08:40:55.911Z,68.30
2017-04-13T08:41:53.773Z,68.20
2017-04-13T08:42:51.270Z,68.20
2017-04-13T08:43:49.136Z,67.20
2017-04-13T08:44:46.983Z,67.50
2017-04-13T08:45:44.887Z,67.70
2017-04-13T08:46:42.743Z,67.60
2017-04-13T08:47:40.582Z,67.60
2017-04-13T08:48:38.452Z,67.10
2017-04-13T08:49:36.376Z,67.30
2017-04-13T08:50:34.234Z,67.30
2017-04-13T08:51:32.192Z,67.00
2017-04-13T08:52:30.059Z,66.80
2017-04-13T08:53:27.906Z,66.80
2017-04-13T08:54:26.170Z,66.20
2017-04-13T08:55:24.011Z,66.30
2017-04-13T08:56:21.895Z,66.20
2017-04-13T08:57:20.084Z,66.10
2017-04-13T08:58:17.970Z,64.60
2017-04-13T08:59:15.821Z,64.00
2017-04-13T09:00:13.666Z,63.60
2017-04-13T09:01:11.519Z,64.00
2017-04-13T09:02:09.367Z,64.60
2017-04-13T09:03:07.274Z,64.90
2017-04-13T09:04:05.161Z,64.50
2017-04-13T09:05:03.028Z,64.60
2017-04-13T09:06:00.898Z,65.00
2017-04-13T09:06:58.553Z,65.00
2017-04-13T09:07:56.406Z,65.20
2017-04-13T09:08:54.299Z,65.10
2017-04-13T09:09:58.887Z,65.20
2017-04-13T09:10:56.740Z,64.60
2017-04-13T09:11:54.858Z,64.90
2017-04-13T09:12:52.730Z,65.00
2017-04-13T09:13:50.622Z,64.70
2017-04-13T09:14:48.525Z,64.90
2017-04-13T09:15:46.395Z,64.80
2017-04-13T09:16:44.279Z,65.00
2017-04-13T09:17:42.161Z,65.00
2017-04-13T09:18:40.028Z,64.60
2017-04-13T09:19:38.643Z,64.30
2017-04-13T09:20:36.564Z,64.40
2017-04-13T09:21:34.423Z,64.50
2017-04-13T09:22:32.645Z,64.50
2017-04-13T09:23:30.499Z,63.80
2017-04-13T09:24:28.347Z,63.20
2017-04-13T09:25:26.224Z,62.90
2017-04-13T09:26:24.122Z,62.70
2017-04-13T09:27:22.058Z,62.90
2017-04-13T09:28:19.910Z,62.70
2017-04-13T09:29:17.775Z,62.50
2017-04-13T09:30:15.610Z,62.70
2017-04-13T09:31:13.456Z,62.80
2017-04-13T09:32:11.375Z,62.70
2017-04-13T09:33:09.201Z,62.70
2017-04-13T09:34:07.114Z,62.60
2017-04-13T09:35:04.980Z,62.60
2017-04-13T09:36:02.829Z,62.40
2017-04-13T09:37:00.673Z,62.10
2017-04-13T09:37:58.631Z,62.30
2017-04-13T09:38:56.663Z,62.50
2017-04-13T09:39:54.503Z,62.90
2017-04-13T09:40:52.346Z,63.20
2017-04-13T09:41:50.181Z,63.40
2017-04-13T09:42:48.294Z,63.50
2017-04-13T09:43:46.214Z,63.30
2017-04-13T09:44:44.462Z,63.40
2017-04-13T09:45:42.323Z,63.60
2017-04-13T09:46:40.190Z,63.60
2017-04-13T09:47:38.054Z,63.60
2017-04-13T09:48:35.913Z,63.10
2017-04-13T09:49:33.957Z,62.70
2017-04-13T09:50:31.806Z,62.90
2017-04-13T09:51:29.662Z,63.10
2017-04-13T09:52:27.547Z,63.30
2017-04-13T09:53:25.431Z,63.00
2017-04-13T09:54:23.427Z,63.40
2017-04-13T09:55:21.366Z,63.30
2017-04-13T09:56:19.230Z,63.40
2017-04-13T09:57:17.076Z,63.50
2017-04-13T09:58:14.942Z,63.40
2017-04-13T09:59:13.204Z,63.20
2017-04-13T10:00:11.158Z,63.00
2017-04-13T10:01:09.062Z,63.30
2017-04-13T10:02:06.911Z,63.50
2017-04-13T10:03:04.806Z,63.30
2017-04-13T10:04:02.706Z,63.40
2017-04-13T10:05:00.721Z,63.30
2017-04-13T10:05:58.566Z,63.30
2017-04-13T10:06:56.525Z,63.40
2017-04-13T10:07:54.380Z,63.70
2017-04-13T10:08:52.266Z,63.30
2017-04-13T10:09:50.481Z,62.90
2017-04-13T10:10:47.975Z,62.90
2017-04-13T10:11:45.834Z,62.70
2017-04-13T10:12:43.778Z,62.40
2017-04-13T10:13:41.648Z,62.10
2017-04-13T10:14:39.504Z,62.00
2017-04-13T10:15:37.414Z,61.90
2017-04-13T10:16:35.294Z,62.20
2017-04-13T10:17:33.171Z,62.30
2017-04-13T10:18:31.051Z,62.20
2017-04-13T10:19:28.912Z,62.20
2017-04-13T10:20:26.786Z,61.90
2017-04-13T10:21:24.658Z,61.90
2017-04-13T10:22:22.490Z,61.60
2017-04-13T10:23:20.392Z,61.20
2017-04-13T10:24:18.342Z,61.10
2017-04-13T10:25:16.203Z,60.90
2017-04-13T10:26:14.083Z,61.40
2017-04-13T10:27:11.994Z,61.40
2017-04-13T10:28:09.853Z,61.50
2017-04-13T10:29:07.699Z,61.40
2017-04-13T10:30:05.574Z,61.70
2017-04-13T10:31:03.430Z,62.00
2017-04-13T10:32:01.314Z,62.30
2017-04-13T10:32:59.181Z,62.80
2017-04-13T10:33:57.062Z,63.00
2017-04-13T10:34:55.322Z,62.90
2017-04-13T10:35:53.234Z,62.90
2017-04-13T10:36:51.226Z,62.70
2017-04-13T10:37:49.145Z,62.80
2017-04-13T10:38:46.995Z,62.70
2017-04-13T10:39:44.951Z,62.80
2017-04-13T10:40:42.806Z,62.60
2017-04-13T10:41:40.727Z,62.60
2017-04-13T10:42:38.635Z,62.50
2017-04-13T10:43:36.745Z,62.50
2017-04-13T10:44:34.611Z,62.50
2017-04-13T10:45:32.489Z,61.50
2017-04-13T10:46:30.346Z,60.10
2017-04-13T10:47:28.254Z,60.40
2017-04-13T10:48:26.101Z,58.40
2017-04-13T10:49:23.962Z,57.90
2017-04-13T10:50:21.816Z,57.80
2017-04-13T10:51:19.673Z,58.10
2017-04-13T10:52:17.563Z,59.70
2017-04-13T10:53:15.460Z,58.70
2017-04-13T10:54:13.305Z,55.90
2017-04-13T10:55:11.169Z,55.20
2017-04-13T10:56:09.025Z,54.90
2017-04-13T10:57:06.886Z,54.80
2017-04-13T10:58:04.768Z,55.20
2017-04-13T10:59:02.712Z,55.40
2017-04-13T11:00:00.579Z,55.70
2017-04-13T11:00:58.435Z,55.50
2017-04-13T11:01:56.274Z,55.10
2017-04-13T11:02:53.836Z,55.10
2017-04-13T11:03:51.930Z,54.70
2017-04-13T11:04:49.868Z,55.10
2017-04-13T11:05:47.685Z,55.30
2017-04-13T11:06:45.554Z,55.40
2017-04-13T11:07:43.398Z,55.50
2017-04-13T11:08:41.330Z,55.70
2017-04-13T11:09:39.250Z,55.90
2017-04-13T11:10:37.185Z,55.70
2017-04-13T11:11:35.051Z,55.90
2017-04-13T11:12:32.928Z,56.00
2017-04-13T11:13:30.780Z,56.00
2017-04-13T11:14:28.713Z,56.00
2017-04-13T11:15:26.546Z,56.10
2017-04-13T11:16:24.432Z,56.10
2017-04-13T11:17:22.584Z,56.10
2017-04-13T11:18:20.507Z,56.00
2017-04-13T11:19:18.595Z,55.90
2017-04-13T11:20:16.491Z,55.50
2017-04-13T11:21:14.347Z,55.10
2017-04-13T11:22:12.231Z,55.50
2017-04-13T11:23:10.567Z,55.70
2017-04-13T11:24:08.441Z,55.80
2017-04-13T11:25:06.346Z,55.90
2017-04-13T11:26:04.534Z,55.90
2017-04-13T11:27:02.433Z,55.50
2017-04-13T11:28:00.743Z,55.50
2017-04-13T11:28:58.616Z,55.30
2017-04-13T11:29:56.518Z,55.20
2017-04-13T11:30:54.380Z,55.30
2017-04-13T11:31:52.291Z,55.30
2017-04-13T11:32:50.215Z,55.30
2017-04-13T11:33:48.118Z,55.50
2017-04-13T11:34:46.055Z,55.50
2017-04-13T11:35:43.936Z,55.80
2017-04-13T11:36:41.846Z,55.80
2017-04-13T11:37:39.772Z,55.70
2017-04-13T11:38:37.707Z,55.50
2017-04-13T11:39:35.597Z,55.70
2017-04-13T11:40:33.513Z,55.80
2017-04-13T11:41:31.686Z,55.40
2017-04-13T11:42:29.566Z,55.60
2017-04-13T11:43:27.541Z,55.70
2017-04-13T11:44:25.411Z,55.50
2017-04-13T11:45:23.641Z,55.50
2017-04-13T11:46:21.534Z,55.20
2017-04-13T11:47:19.808Z,55.20
2017-04-13T11:48:17.693Z,55.10
2017-04-13T11:49:15.634Z,54.90
2017-04-13T11:50:13.513Z,55.20
2017-04-13T11:51:11.425Z,55.20
2017-04-13T11:52:09.815Z,55.00
2017-04-13T11:53:07.699Z,55.00
2017-04-13T11:54:05.646Z,54.70
2017-04-13T11:55:03.634Z,53.90
2017-04-13T11:56:01.539Z,53.90
2017-04-13T11:56:59.449Z,54.30
2017-04-13T11:57:57.338Z,54.50
2017-04-13T11:58:55.207Z,54.60
2017-04-13T11:59:53.080Z,54.70
2017-04-13T12:00:50.966Z,54.80
2017-04-13T12:01:48.824Z,54.70
2017-04-13T12:02:46.704Z,54.60
2017-04-13T12:03:44.587Z,54.60
2017-04-13T12:04:42.422Z,54.70
2017-04-13T12:05:40.255Z,54.50
2017-04-13T12:06:38.183Z,54.20
2017-04-13T12:07:36.058Z,53.50
2017-04-13T12:08:33.967Z,53.50
2017-04-13T12:09:31.822Z,53.10
2017-04-13T12:10:29.685Z,52.70
2017-04-13T12:11:27.526Z,52.50
2017-04-13T12:12:25.442Z,52.30
2017-04-13T12:13:23.341Z,52.00
2017-04-13T12:14:21.200Z,51.90
2017-04-13T12:15:19.063Z,52.10
2017-04-13T12:16:16.923Z,52.20
2017-04-13T12:17:14.775Z,52.50
2017-04-13T12:18:12.691Z,52.70
2017-04-13T12:19:10.583Z,52.40
2017-04-13T12:20:08.457Z,52.50
2017-04-13T12:21:06.411Z,52.20
2017-04-13T12:22:04.306Z,52.30
2017-04-13T12:23:02.170Z,52.10
2017-04-13T12:24:00.071Z,52.20
2017-04-13T12:24:58.001Z,52.40
2017-04-13T12:25:55.857Z,52.50